createdAt,value
2018-09-10T00:00:20.920Z,4.00
2018-09-10T00:01:20.919Z,4.00
2018-09-10T00:02:20.907Z,4.00
2018-09-10T00:03:20.886Z,4.00
2018-09-10T00:04:20.886Z,4.00
2018-09-10T00:05:20.866Z,4.00
2018-09-10T00:06:20.865Z,4.00
2018-09-10T00:07:20.914Z,4.00
2018-09-10T00:08:20.838Z,4.00
2018-09-10T00:09:20.831Z,4.00
2018-09-10T00:10:20.822Z,4.00
2018-09-10T00:11:20.799Z,4.00
2018-09-10T00:12:20.798Z,4.00
2018-09-10T00:13:20.778Z,4.00
2018-09-10T00:14:20.768Z,4.00
2018-09-10T00:15:20.766Z,4.00
2018-09-10T00:16:20.755Z,4.00
2018-09-10T00:17:20.734Z,4.00
2018-09-10T00:18:20.735Z,4.00
2018-09-10T00:19:20.722Z,4.00
2018-09-10T00:20:20.710Z,4.00
2018-09-10T00:21:20.700Z,4.00
2018-09-10T00:22:20.680Z,4.00
2018-09-10T00:23:20.677Z,4.00
2018-09-10T00:24:20.658Z,4.00
2018-09-10T00:25:20.659Z,4.00
2018-09-10T00:26:20.645Z,4.00
2018-09-10T00:27:20.624Z,4.00
2018-09-10T00:28:20.614Z,4.00
2018-09-10T00:29:20.612Z,4.00
2018-09-10T00:30:20.601Z,4.00
2018-09-10T00:31:20.590Z,4.00
2018-09-10T00:32:20.579Z,4.00
2018-09-10T00:33:20.559Z,4.00
2018-09-10T00:34:20.557Z,4.00
2018-09-10T00:35:20.536Z,4.00
2018-09-10T00:36:20.525Z,4.00
2018-09-10T00:37:20.524Z,4.00
2018-09-10T00:38:20.506Z,4.00
2018-09-10T00:39:20.492Z,4.00
2018-09-10T00:40:20.481Z,4.00
2018-09-10T00:41:20.480Z,4.00
2018-09-10T00:42:20.459Z,4.00
2018-09-10T00:43:20.458Z,4.00
2018-09-10T00:44:20.447Z,4.00
2018-09-10T00:45:20.427Z,4.00
2018-09-10T00:46:20.416Z,4.00
2018-09-10T00:47:20.414Z,4.00
2018-09-10T00:48:20.394Z,4.00
2018-09-10T00:49:20.392Z,4.00
2018-09-10T00:50:20.376Z,4.00
2018-09-10T00:51:20.359Z,4.00
2018-09-10T00:52:20.348Z,4.00
2018-09-10T00:53:20.338Z,4.00
2018-09-10T00:54:20.327Z,4.00
2018-09-10T00:55:20.325Z,4.00
2018-09-10T00:56:20.306Z,4.00
2018-09-10T00:57:20.294Z,4.00
2018-09-10T00:58:20.283Z,4.00
2018-09-10T00:59:20.373Z,4.00
2018-09-10T01:00:20.261Z,4.00
2018-09-10T01:01:20.251Z,4.00
2018-09-10T01:02:20.240Z,4.00
2018-09-10T01:03:20.227Z,4.00
2018-09-10T01:04:20.217Z,4.00
2018-09-10T01:05:20.416Z,4.00
2018-09-10T01:06:20.195Z,4.00
2018-09-10T01:07:20.192Z,4.00
2018-09-10T01:08:20.182Z,4.00
2018-09-10T01:09:20.171Z,4.00
2018-09-10T01:10:20.160Z,4.00
2018-09-10T01:11:20.141Z,4.00
2018-09-10T01:12:20.128Z,4.00
2018-09-10T01:13:20.117Z,4.00
2018-09-10T01:14:20.107Z,4.00
2018-09-10T01:15:20.104Z,4.00
2018-09-10T01:16:20.085Z,4.00
2018-09-10T01:17:20.082Z,4.00
2018-09-10T01:18:20.062Z,4.00
2018-09-10T01:19:20.060Z,4.00
2018-09-10T01:20:20.040Z,4.00
2018-09-10T01:21:20.042Z,4.00
2018-09-10T01:22:20.018Z,4.00
2018-09-10T01:23:20.008Z,4.00
2018-09-10T01:24:20.006Z,4.00
2018-09-10T01:25:19.984Z,4.00
2018-09-10T01:26:19.973Z,4.00
2018-09-10T01:27:19.961Z,4.00
2018-09-10T01:28:19.950Z,4.00
2018-09-10T01:29:20.049Z,4.00
2018-09-10T01:30:19.938Z,4.00
2018-09-10T01:31:19.921Z,4.00
2018-09-10T01:32:19.915Z,4.00
2018-09-10T01:33:19.904Z,4.00
2018-09-10T01:34:19.883Z,4.00
2018-09-10T01:35:19.883Z,4.00
2018-09-10T01:36:19.871Z,4.00
2018-09-10T01:37:19.861Z,4.00
2018-09-10T01:38:19.848Z,4.00
2018-09-10T01:39:19.828Z,4.00
2018-09-10T01:40:19.820Z,4.00
2018-09-10T01:41:19.915Z,4.00
2018-09-10T01:42:19.804Z,4.00
2018-09-10T01:43:19.791Z,4.00
2018-09-10T01:44:19.780Z,4.00
2018-09-10T01:45:19.772Z,4.00
2018-09-10T01:46:19.759Z,4.00
2018-09-10T01:47:19.747Z,4.00
2018-09-10T01:48:19.735Z,4.00
2018-09-10T01:49:19.725Z,4.00
2018-09-10T01:50:19.716Z,4.00
2018-09-10T01:51:19.701Z,4.00
2018-09-10T01:52:19.691Z,4.00
2018-09-10T01:53:19.780Z,4.00
2018-09-10T01:54:19.670Z,4.00
2018-09-10T01:55:19.657Z,4.00
2018-09-10T01:56:19.645Z,4.00
2018-09-10T01:57:19.637Z,4.00
2018-09-10T01:58:19.624Z,4.00
2018-09-10T01:59:19.614Z,4.00
2018-09-10T02:00:19.667Z,4.00
2018-09-10T02:01:19.654Z,4.00
2018-09-10T02:02:19.637Z,4.00
2018-09-10T02:03:19.566Z,4.00
2018-09-10T02:04:19.556Z,4.00
2018-09-10T02:05:19.613Z,4.00
2018-09-10T02:06:19.595Z,4.00
2018-09-10T02:07:19.572Z,4.00
2018-09-10T02:08:19.511Z,4.00
2018-09-10T02:09:19.502Z,4.00
2018-09-10T02:10:19.553Z,4.00
2018-09-10T02:11:19.535Z,4.00
2018-09-10T02:12:19.509Z,4.00
2018-09-10T02:13:19.507Z,4.00
2018-09-10T02:14:19.501Z,4.00
2018-09-10T02:15:19.430Z,4.00
2018-09-10T02:16:19.430Z,4.00
2018-09-10T02:17:19.557Z,4.00
2018-09-10T02:18:19.452Z,4.00
2018-09-10T02:19:19.385Z,4.00
2018-09-10T02:20:19.397Z,4.00
2018-09-10T02:21:19.418Z,4.00
2018-09-10T02:22:19.408Z,4.00
2018-09-10T02:23:19.540Z,4.00
2018-09-10T02:24:19.387Z,4.00
2018-09-10T02:25:19.318Z,4.00
2018-09-10T02:26:19.360Z,4.00
2018-09-10T02:27:19.398Z,4.00
2018-09-10T02:28:19.334Z,4.00
2018-09-10T02:29:19.400Z,4.00
2018-09-10T02:30:19.309Z,4.00
2018-09-10T02:31:19.300Z,4.00
2018-09-10T02:32:19.235Z,4.00
2018-09-10T02:33:19.222Z,4.00
2018-09-10T02:34:19.248Z,4.00
2018-09-10T02:35:19.226Z,4.00
2018-09-10T02:36:19.226Z,4.00
2018-09-10T02:37:19.215Z,4.00
2018-09-10T02:38:19.166Z,4.00
2018-09-10T02:39:19.159Z,4.00
2018-09-10T02:40:19.196Z,4.00
2018-09-10T02:41:19.170Z,4.00
2018-09-10T02:42:19.139Z,4.00
2018-09-10T02:43:19.109Z,4.00
2018-09-10T02:44:19.142Z,4.00
2018-09-10T02:45:19.137Z,4.00
2018-09-10T02:46:19.075Z,4.00
2018-09-10T02:47:19.222Z,4.00
2018-09-10T02:48:19.052Z,4.00
2018-09-10T02:49:19.107Z,4.00
2018-09-10T02:50:19.030Z,4.00
2018-09-10T02:51:19.083Z,4.00
2018-09-10T02:52:19.008Z,4.00
2018-09-10T02:53:18.995Z,4.00
2018-09-10T02:54:18.985Z,4.00
2018-09-10T02:55:19.064Z,4.00
2018-09-10T02:56:18.960Z,4.00
2018-09-10T02:57:18.952Z,4.00
2018-09-10T02:58:18.939Z,4.00
2018-09-10T02:59:19.026Z,4.00
2018-09-10T03:00:18.917Z,4.00
2018-09-10T03:01:18.985Z,4.00
2018-09-10T03:02:18.895Z,4.00
2018-09-10T03:03:18.925Z,4.00
2018-09-10T03:04:18.871Z,4.00
2018-09-10T03:05:18.874Z,4.00
2018-09-10T03:06:18.848Z,4.00
2018-09-10T03:07:18.834Z,4.00
2018-09-10T03:08:18.826Z,4.00
2018-09-10T03:09:18.812Z,4.00
2018-09-10T03:10:18.803Z,4.00
2018-09-10T03:11:18.809Z,4.00
2018-09-10T03:12:18.778Z,4.00
2018-09-10T03:13:18.771Z,4.00
2018-09-10T03:14:18.756Z,4.00
2018-09-10T03:15:18.753Z,4.00
2018-09-10T03:16:18.731Z,4.00
2018-09-10T03:17:18.819Z,4.00
2018-09-10T03:18:18.709Z,4.00
2018-09-10T03:19:18.696Z,4.00
2018-09-10T03:20:18.689Z,4.00
2018-09-10T03:21:18.685Z,4.00
2018-09-10T03:22:18.663Z,4.00
2018-09-10T03:23:18.762Z,4.00
2018-09-10T03:24:18.649Z,4.00
2018-09-10T03:25:18.634Z,4.00
2018-09-10T03:26:18.623Z,4.00
2018-09-10T03:27:18.613Z,4.00
2018-09-10T03:28:18.598Z,4.00
2018-09-10T03:29:18.788Z,4.00
2018-09-10T03:30:18.570Z,4.00
2018-09-10T03:31:18.561Z,4.00
2018-09-10T03:32:18.546Z,4.00
2018-09-10T03:33:18.537Z,4.00
2018-09-10T03:34:18.528Z,4.00
2018-09-10T03:35:18.620Z,4.00
2018-09-10T03:36:18.501Z,4.00
2018-09-10T03:37:18.490Z,4.00
2018-09-10T03:38:18.476Z,4.00
2018-09-10T03:39:18.465Z,4.00
2018-09-10T03:40:18.457Z,4.00
2018-09-10T03:41:18.548Z,4.00
2018-09-10T03:42:18.435Z,4.00
2018-09-10T03:43:18.425Z,4.00
2018-09-10T03:44:18.408Z,4.00
2018-09-10T03:45:18.400Z,4.00
2018-09-10T03:46:18.389Z,4.00
2018-09-10T03:47:18.440Z,4.00
2018-09-10T03:48:18.361Z,4.00
2018-09-10T03:49:18.350Z,4.00
2018-09-10T03:50:18.339Z,4.00
2018-09-10T03:51:18.330Z,4.00
2018-09-10T03:52:18.320Z,4.00
2018-09-10T03:53:18.304Z,4.00
2018-09-10T03:54:18.297Z,4.00
2018-09-10T03:55:18.289Z,4.00
2018-09-10T03:56:18.269Z,4.00
2018-09-10T03:57:18.260Z,4.00
2018-09-10T03:58:18.248Z,4.00
2018-09-10T03:59:18.239Z,4.00
2018-09-10T04:00:18.225Z,4.00
2018-09-10T04:01:18.217Z,4.00
2018-09-10T04:02:18.220Z,4.00
2018-09-10T04:03:18.193Z,4.00
2018-09-10T04:04:18.183Z,4.00
2018-09-10T04:05:18.171Z,4.00
2018-09-10T04:06:18.167Z,4.00
2018-09-10T04:07:18.147Z,4.00
2018-09-10T04:08:18.137Z,4.00
2018-09-10T04:09:18.122Z,4.00
2018-09-10T04:10:18.111Z,4.00
2018-09-10T04:11:18.199Z,4.00
2018-09-10T04:12:18.090Z,4.00
2018-09-10T04:13:18.076Z,4.00
2018-09-10T04:14:18.069Z,4.00
2018-09-10T04:15:18.059Z,4.00
2018-09-10T04:16:18.042Z,4.00
2018-09-10T04:17:18.249Z,4.00
2018-09-10T04:18:18.021Z,4.00
2018-09-10T04:19:18.010Z,4.00
2018-09-10T04:20:17.996Z,4.00
2018-09-10T04:21:17.984Z,4.00
2018-09-10T04:22:17.973Z,4.00
2018-09-10T04:23:18.061Z,4.00
2018-09-10T04:24:17.953Z,4.00
2018-09-10T04:25:17.937Z,4.00
2018-09-10T04:26:17.928Z,4.00
2018-09-10T04:27:17.915Z,4.00
2018-09-10T04:28:17.911Z,4.00
2018-09-10T04:29:17.893Z,4.00
2018-09-10T04:30:17.880Z,4.00
2018-09-10T04:31:17.868Z,4.00
2018-09-10T04:32:17.860Z,4.00
2018-09-10T04:33:17.850Z,4.00
2018-09-10T04:34:17.833Z,4.00
2018-09-10T04:35:17.821Z,4.00
2018-09-10T04:36:17.812Z,4.00
2018-09-10T04:37:17.799Z,4.00
2018-09-10T04:38:17.793Z,4.00
2018-09-10T04:39:17.775Z,4.00
2018-09-10T04:40:17.768Z,4.00
2018-09-10T04:41:17.756Z,4.00
2018-09-10T04:42:17.776Z,4.00
2018-09-10T04:43:17.728Z,4.00
2018-09-10T04:44:17.718Z,4.00
2018-09-10T04:45:17.710Z,4.00
2018-09-10T04:46:17.699Z,4.00
2018-09-10T04:47:17.787Z,4.00
2018-09-10T04:48:17.672Z,4.00
2018-09-10T04:49:17.663Z,4.00
2018-09-10T04:50:17.648Z,4.00
2018-09-10T04:51:17.641Z,4.00
2018-09-10T04:52:17.629Z,4.00
2018-09-10T04:53:17.618Z,4.00
2018-09-10T04:54:17.603Z,4.00
2018-09-10T04:55:17.594Z,4.00
2018-09-10T04:56:17.583Z,4.00
2018-09-10T04:57:17.568Z,4.00
2018-09-10T04:58:17.715Z,4.00
2018-09-10T04:59:17.644Z,4.00
2018-09-10T05:00:17.535Z,4.00
2018-09-10T05:01:17.522Z,4.00
2018-09-10T05:02:17.510Z,4.00
2018-09-10T05:03:17.498Z,4.00
2018-09-10T05:04:17.504Z,4.00
2018-09-10T05:05:17.577Z,4.00
2018-09-10T05:06:17.466Z,4.00
2018-09-10T05:07:17.452Z,4.00
2018-09-10T05:08:17.442Z,4.00
2018-09-10T05:09:17.430Z,4.00
2018-09-10T05:10:17.418Z,4.00
2018-09-10T05:11:17.565Z,4.00
2018-09-10T05:12:17.395Z,4.00
2018-09-10T05:13:17.389Z,4.00
2018-09-10T05:14:17.373Z,4.00
2018-09-10T05:15:17.359Z,4.00
2018-09-10T05:16:17.349Z,4.00
2018-09-10T05:17:17.436Z,4.00
2018-09-10T05:18:17.324Z,4.00
2018-09-10T05:19:17.313Z,4.00
2018-09-10T05:20:17.304Z,4.00
2018-09-10T05:21:17.290Z,4.00
2018-09-10T05:22:17.278Z,4.00
2018-09-10T05:23:17.366Z,4.00
2018-09-10T05:24:17.255Z,4.00
2018-09-10T05:25:17.242Z,4.00
2018-09-10T05:26:17.232Z,4.00
2018-09-10T05:27:17.228Z,4.00
2018-09-10T05:28:17.339Z,4.00
2018-09-10T05:29:17.297Z,4.00
2018-09-10T05:30:17.185Z,4.00
2018-09-10T05:31:17.173Z,4.00
2018-09-10T05:32:17.160Z,4.00
2018-09-10T05:33:17.151Z,4.00
2018-09-10T05:34:17.137Z,4.00
2018-09-10T05:35:17.225Z,4.00
2018-09-10T05:36:17.118Z,4.00
2018-09-10T05:37:17.102Z,4.00
2018-09-10T05:38:17.094Z,4.00
2018-09-10T05:39:17.078Z,4.00
2018-09-10T05:40:17.067Z,4.00
2018-09-10T05:41:17.155Z,4.00
2018-09-10T05:42:17.044Z,4.00
2018-09-10T05:43:17.031Z,4.00
2018-09-10T05:44:17.021Z,4.00
2018-09-10T05:45:17.014Z,4.00
2018-09-10T05:46:16.997Z,4.00
2018-09-10T05:47:16.988Z,4.00
2018-09-10T05:48:16.978Z,4.00
2018-09-10T05:49:16.966Z,4.00
2018-09-10T05:50:16.950Z,4.00
2018-09-10T05:51:16.942Z,4.00
2018-09-10T05:52:16.930Z,4.00
2018-09-10T05:53:17.101Z,4.00
2018-09-10T05:54:16.906Z,4.00
2018-09-10T05:55:16.895Z,4.00
2018-09-10T05:56:16.881Z,4.00
2018-09-10T05:57:16.872Z,4.00
2018-09-10T05:58:16.869Z,4.00
2018-09-10T05:59:17.049Z,4.00
2018-09-10T06:00:16.840Z,4.00
2018-09-10T06:01:16.825Z,4.00
2018-09-10T06:02:16.814Z,4.00
2018-09-10T06:03:16.800Z,4.00
2018-09-10T06:04:16.791Z,4.00
2018-09-10T06:05:16.777Z,4.00
2018-09-10T06:06:16.766Z,4.00
2018-09-10T06:07:16.753Z,4.00
2018-09-10T06:08:16.741Z,4.00
2018-09-10T06:09:16.738Z,4.00
2018-09-10T06:10:16.721Z,4.00
2018-09-10T06:11:16.806Z,4.00
2018-09-10T06:12:16.696Z,4.00
2018-09-10T06:13:16.685Z,4.00
2018-09-10T06:14:16.673Z,4.00
2018-09-10T06:15:16.659Z,4.00
2018-09-10T06:16:16.654Z,4.00
2018-09-10T06:17:16.726Z,4.00
2018-09-10T06:18:16.624Z,4.00
2018-09-10T06:19:16.611Z,4.00
2018-09-10T06:20:16.601Z,4.00
2018-09-10T06:21:16.591Z,4.00
2018-09-10T06:22:16.577Z,4.00
2018-09-10T06:23:16.554Z,4.00
2018-09-10T06:24:16.542Z,4.00
2018-09-10T06:25:16.531Z,4.00
2018-09-10T06:26:16.519Z,4.00
2018-09-10T06:27:16.506Z,4.00
2018-09-10T06:28:16.499Z,4.00
2018-09-10T06:29:16.488Z,4.00
2018-09-10T06:30:16.483Z,4.00
2018-09-10T06:31:16.463Z,4.00
2018-09-10T06:32:16.450Z,4.00
2018-09-10T06:33:16.441Z,4.00
2018-09-10T06:34:16.439Z,4.00
2018-09-10T06:35:16.512Z,4.00
2018-09-10T06:36:16.405Z,4.00
2018-09-10T06:37:16.444Z,4.00
2018-09-10T06:38:16.381Z,4.00
2018-09-10T06:39:16.362Z,4.00
2018-09-10T06:40:16.357Z,4.00
2018-09-10T06:41:16.445Z,4.00
2018-09-10T06:42:16.332Z,4.00
2018-09-10T06:43:16.319Z,4.00
2018-09-10T06:44:16.308Z,4.00
2018-09-10T06:45:16.290Z,4.00
2018-09-10T06:46:16.281Z,4.00
2018-09-10T06:47:16.272Z,4.00
2018-09-10T06:48:16.255Z,4.00
2018-09-10T06:49:16.242Z,4.00
2018-09-10T06:50:16.237Z,4.00
2018-09-10T06:51:16.222Z,4.00
2018-09-10T06:52:16.206Z,4.00
2018-09-10T06:53:16.296Z,4.00
2018-09-10T06:54:16.182Z,4.00
2018-09-10T06:55:16.169Z,4.00
2018-09-10T06:56:16.163Z,4.00
2018-09-10T06:57:16.152Z,4.00
2018-09-10T06:58:16.139Z,4.00
2018-09-10T06:59:16.220Z,4.00
2018-09-10T07:00:16.176Z,4.00
2018-09-10T07:01:16.097Z,4.00
2018-09-10T07:02:16.085Z,4.00
2018-09-10T07:03:16.071Z,4.00
2018-09-10T07:04:16.060Z,4.00
2018-09-10T07:05:16.056Z,4.00
2018-09-10T07:06:16.043Z,4.00
2018-09-10T07:07:16.023Z,4.00
2018-09-10T07:08:16.011Z,4.00
2018-09-10T07:09:16.000Z,4.00
2018-09-10T07:10:15.998Z,4.00
2018-09-10T07:11:15.975Z,4.00
2018-09-10T07:12:15.969Z,4.00
2018-09-10T07:13:15.993Z,4.00
2018-09-10T07:14:15.946Z,4.00
2018-09-10T07:15:15.932Z,4.00
2018-09-10T07:16:15.919Z,4.00
2018-09-10T07:17:16.060Z,4.00
2018-09-10T07:18:15.897Z,4.00
2018-09-10T07:19:15.884Z,4.00
2018-09-10T07:20:15.870Z,4.00
2018-09-10T07:21:15.855Z,4.00
2018-09-10T07:22:15.849Z,4.00
2018-09-10T07:23:15.934Z,4.00
2018-09-10T07:24:15.823Z,4.00
2018-09-10T07:25:15.813Z,4.00
2018-09-10T07:26:15.801Z,4.00
2018-09-10T07:27:15.781Z,4.00
2018-09-10T07:28:15.774Z,4.00
2018-09-10T07:29:15.867Z,4.00
2018-09-10T07:30:15.750Z,4.00
2018-09-10T07:31:15.738Z,4.00
2018-09-10T07:32:15.720Z,4.00
2018-09-10T07:33:15.709Z,4.00
2018-09-10T07:34:15.697Z,4.00
2018-09-10T07:35:15.684Z,4.00
2018-09-10T07:36:15.678Z,4.00
2018-09-10T07:37:15.665Z,4.00
2018-09-10T07:38:15.653Z,4.00
2018-09-10T07:39:15.637Z,4.00
2018-09-10T07:40:15.630Z,4.00
2018-09-10T07:41:15.617Z,4.00
2018-09-10T07:42:15.606Z,4.00
2018-09-10T07:43:15.594Z,4.00
2018-09-10T07:44:15.601Z,4.00
2018-09-10T07:45:15.563Z,4.00
2018-09-10T07:46:15.551Z,4.00
2018-09-10T07:47:15.638Z,4.00
2018-09-10T07:48:15.525Z,4.00
2018-09-10T07:49:15.513Z,4.00
2018-09-10T07:50:15.502Z,4.00
2018-09-10T07:51:15.494Z,4.00
2018-09-10T07:52:15.482Z,4.00
2018-09-10T07:53:15.569Z,4.00
2018-09-10T07:54:15.458Z,4.00
2018-09-10T07:55:15.438Z,4.00
2018-09-10T07:56:15.433Z,4.00
2018-09-10T07:57:15.414Z,4.00
2018-09-10T07:58:15.408Z,4.00
2018-09-10T07:59:15.396Z,4.00
2018-09-10T08:00:15.377Z,4.00
2018-09-10T08:01:15.365Z,4.00
2018-09-10T08:02:15.352Z,4.00
2018-09-10T08:03:15.345Z,4.00
2018-09-10T08:04:15.335Z,4.00
2018-09-10T08:05:15.322Z,4.00
2018-09-10T08:06:15.308Z,4.00
2018-09-10T08:07:15.290Z,4.00
2018-09-10T08:08:15.283Z,4.00
2018-09-10T08:09:15.367Z,4.00
2018-09-10T08:10:15.261Z,4.00
2018-09-10T08:11:15.349Z,4.00
2018-09-10T08:12:15.228Z,4.00
2018-09-10T08:13:15.223Z,4.00
2018-09-10T08:14:15.206Z,4.00
2018-09-10T08:15:15.191Z,4.00
2018-09-10T08:16:15.185Z,4.00
2018-09-10T08:17:15.322Z,4.00
2018-09-10T08:18:15.154Z,4.00
2018-09-10T08:19:15.151Z,4.00
2018-09-10T08:20:15.130Z,4.00
2018-09-10T08:21:15.124Z,4.00
2018-09-10T08:22:15.105Z,4.00
2018-09-10T08:23:15.093Z,4.00
2018-09-10T08:24:15.112Z,4.00
2018-09-10T08:25:15.117Z,4.00
2018-09-10T08:26:15.056Z,4.00
2018-09-10T08:27:15.043Z,4.00
2018-09-10T08:28:15.031Z,4.00
2018-09-10T08:29:15.168Z,4.00
2018-09-10T08:30:15.009Z,4.00
2018-09-10T08:31:14.995Z,4.00
2018-09-10T08:32:14.983Z,4.00
2018-09-10T08:33:14.972Z,4.00
2018-09-10T08:34:14.958Z,4.00
2018-09-10T08:35:15.096Z,4.00
2018-09-10T08:36:14.934Z,4.00
2018-09-10T08:37:14.924Z,4.00
2018-09-10T08:38:14.909Z,4.00
2018-09-10T08:39:14.896Z,4.00
2018-09-10T08:40:14.887Z,4.00
2018-09-10T08:41:14.972Z,4.00
2018-09-10T08:42:14.859Z,4.00
2018-09-10T08:43:14.846Z,4.00
2018-09-10T08:44:14.835Z,4.00
2018-09-10T08:45:14.823Z,4.00
2018-09-10T08:46:14.811Z,4.00
2018-09-10T08:47:14.797Z,4.00
2018-09-10T08:48:14.799Z,4.00
2018-09-10T08:49:14.774Z,8.00
2018-09-10T08:50:14.762Z,8.00
2018-09-10T08:51:14.749Z,8.00
2018-09-10T08:52:14.738Z,8.00
2018-09-10T08:53:14.825Z,4.00
2018-09-10T08:54:14.793Z,8.00
2018-09-10T08:55:14.801Z,8.00
2018-09-10T08:56:14.983Z,8.00
2018-09-10T08:57:14.676Z,8.00
2018-09-10T08:58:14.663Z,12.00
2018-09-10T08:59:14.650Z,8.00
2018-09-10T09:00:14.652Z,12.00
2018-09-10T09:01:14.631Z,12.00
2018-09-10T09:02:14.614Z,12.00
2018-09-10T09:03:14.602Z,12.00
2018-09-10T09:04:14.589Z,8.00
2018-09-10T09:05:14.677Z,8.00
2018-09-10T09:06:14.607Z,8.00
2018-09-10T09:07:14.552Z,12.00
2018-09-10T09:08:14.539Z,12.00
2018-09-10T09:09:14.528Z,12.00
2018-09-10T09:10:14.516Z,16.00
2018-09-10T09:11:14.603Z,20.00
2018-09-10T09:12:14.490Z,20.00
2018-09-10T09:13:14.478Z,24.00
2018-09-10T09:14:14.466Z,24.00
2018-09-10T09:15:14.453Z,28.00
2018-09-10T09:16:14.443Z,28.00
2018-09-10T09:17:14.433Z,32.00
2018-09-10T09:18:14.417Z,36.00
2018-09-10T09:19:14.407Z,36.00
2018-09-10T09:20:14.393Z,40.00
2018-09-10T09:21:14.380Z,44.00
2018-09-10T09:22:14.368Z,44.00
2018-09-10T09:23:14.596Z,48.00
2018-09-10T09:24:14.345Z,56.00
2018-09-10T09:25:14.333Z,60.00
2018-09-10T09:26:14.319Z,60.00
2018-09-10T09:27:14.306Z,64.00
2018-09-10T09:28:14.293Z,64.00
2018-09-10T09:29:14.383Z,72.00
2018-09-10T09:30:14.365Z,76.00
2018-09-10T09:31:14.257Z,76.00
2018-09-10T09:32:14.247Z,80.00
2018-09-10T09:33:14.232Z,84.00
2018-09-10T09:34:14.220Z,88.00
2018-09-10T09:35:14.207Z,92.00
2018-09-10T09:36:14.251Z,92.00
2018-09-10T09:37:14.188Z,96.00
2018-09-10T09:38:14.171Z,100.00
2018-09-10T09:39:14.158Z,104.00
2018-09-10T09:40:14.145Z,108.00
2018-09-10T09:41:14.134Z,108.00
2018-09-10T09:42:14.121Z,112.00
2018-09-10T09:43:14.112Z,116.00
2018-09-10T09:44:14.097Z,116.00
2018-09-10T09:45:14.087Z,124.00
2018-09-10T09:46:14.072Z,124.00
2018-09-10T09:47:14.061Z,132.00
2018-09-10T09:48:14.052Z,132.00
2018-09-10T09:49:14.036Z,136.00
2018-09-10T09:50:14.025Z,136.00
2018-09-10T09:51:14.028Z,140.00
2018-09-10T09:52:13.999Z,144.00
2018-09-10T09:53:13.988Z,144.00
2018-09-10T09:54:13.977Z,144.00
2018-09-10T09:55:13.963Z,148.00
2018-09-10T09:56:13.949Z,152.00
2018-09-10T09:57:13.938Z,156.00
2018-09-10T09:58:13.926Z,156.00
2018-09-10T09:59:14.013Z,160.00
2018-09-10T10:00:13.901Z,164.00
2018-09-10T10:01:13.889Z,164.00
2018-09-10T10:02:13.877Z,168.00
2018-09-10T10:03:13.868Z,172.00
2018-09-10T10:04:13.928Z,176.00
2018-09-10T10:05:13.944Z,180.00
2018-09-10T10:06:13.828Z,180.00
2018-09-10T10:07:13.816Z,184.00
2018-09-10T10:08:13.803Z,188.00
2018-09-10T10:09:13.791Z,188.00
2018-09-10T10:10:13.827Z,192.00
2018-09-10T10:11:13.831Z,192.00
2018-09-10T10:12:13.896Z,196.00
2018-09-10T10:13:13.743Z,200.00
2018-09-10T10:14:13.733Z,200.00
2018-09-10T10:15:13.719Z,204.00
2018-09-10T10:16:13.766Z,208.00
2018-09-10T10:17:13.694Z,208.00
2018-09-10T10:18:13.686Z,208.00
2018-09-10T10:19:13.671Z,208.00
2018-09-10T10:20:13.658Z,208.00
2018-09-10T10:21:13.646Z,224.00
2018-09-10T10:22:13.634Z,264.00
2018-09-10T10:23:13.622Z,288.00
2018-09-10T10:24:13.610Z,296.00
2018-09-10T10:25:13.598Z,324.00
2018-09-10T10:26:13.585Z,328.00
2018-09-10T10:27:13.573Z,340.00
2018-09-10T10:28:13.583Z,328.00
2018-09-10T10:29:13.650Z,348.00
2018-09-10T10:30:13.539Z,372.00
2018-09-10T10:31:13.527Z,360.00
2018-09-10T10:32:13.514Z,380.00
2018-09-10T10:33:13.502Z,376.00
2018-09-10T10:34:13.491Z,348.00
2018-09-10T10:35:13.477Z,344.00
2018-09-10T10:36:13.466Z,344.00
2018-09-10T10:37:13.455Z,316.00
2018-09-10T10:38:13.444Z,304.00
2018-09-10T10:39:13.487Z,300.00
2018-09-10T10:40:13.422Z,284.00
2018-09-10T10:41:13.410Z,288.00
2018-09-10T10:42:13.397Z,284.00
2018-09-10T10:43:13.384Z,288.00
2018-09-10T10:44:13.381Z,280.00
2018-09-10T10:45:13.362Z,296.00
2018-09-10T10:46:13.350Z,328.00
2018-09-10T10:47:13.338Z,336.00
2018-09-10T10:48:13.326Z,368.00
2018-09-10T10:49:13.316Z,404.00
2018-09-10T10:50:13.361Z,460.00
2018-09-10T10:51:13.292Z,556.00
2018-09-10T10:52:13.280Z,560.00
2018-09-10T10:53:13.270Z,452.00
2018-09-10T10:54:13.258Z,428.00
2018-09-10T10:55:13.246Z,404.00
2018-09-10T10:56:13.235Z,396.00
2018-09-10T10:57:13.224Z,396.00
2018-09-10T10:58:13.213Z,428.00
2018-09-10T10:59:13.203Z,520.00
2018-09-10T11:00:13.190Z,612.00
2018-09-10T11:01:13.179Z,636.00
2018-09-10T11:02:13.168Z,672.00
2018-09-10T11:03:13.157Z,636.00
2018-09-10T11:04:13.153Z,556.00
2018-09-10T11:05:13.135Z,508.00
2018-09-10T11:06:13.126Z,532.00
2018-09-10T11:07:13.114Z,516.00
2018-09-10T11:08:13.101Z,532.00
2018-09-10T11:09:13.091Z,520.00
2018-09-10T11:10:13.080Z,544.00
2018-09-10T11:11:13.069Z,492.00
2018-09-10T11:12:13.058Z,428.00
2018-09-10T11:13:13.048Z,396.00
2018-09-10T11:14:13.039Z,480.00
2018-09-10T11:15:13.030Z,512.00
2018-09-10T11:16:13.014Z,476.00
2018-09-10T11:17:13.005Z,468.00
2018-09-10T11:18:12.994Z,432.00
2018-09-10T11:19:12.984Z,476.00
2018-09-10T11:20:12.972Z,556.00
2018-09-10T11:21:12.961Z,480.00
2018-09-10T11:22:12.960Z,468.00
2018-09-10T11:23:13.043Z,484.00
2018-09-10T11:24:12.929Z,496.00
2018-09-10T11:25:12.919Z,596.00
2018-09-10T11:26:12.908Z,604.00
2018-09-10T11:27:12.897Z,584.00
2018-09-10T11:28:12.890Z,644.00
2018-09-10T11:29:12.876Z,672.00
2018-09-10T11:30:12.869Z,692.00
2018-09-10T11:31:12.856Z,684.00
2018-09-10T11:32:12.843Z,612.00
2018-09-10T11:33:12.833Z,528.00
2018-09-10T11:34:12.824Z,504.00
2018-09-10T11:35:12.812Z,596.00
2018-09-10T11:36:12.803Z,688.00
2018-09-10T11:37:12.792Z,760.00
2018-09-10T11:38:12.781Z,648.00
2018-09-10T11:39:12.770Z,556.00
2018-09-10T11:40:12.760Z,716.00
2018-09-10T11:41:12.755Z,780.00
2018-09-10T11:42:12.740Z,712.00
2018-09-10T11:43:12.730Z,764.00
2018-09-10T11:44:12.719Z,772.00
2018-09-10T11:45:12.709Z,736.00
2018-09-10T11:46:12.699Z,596.00
2018-09-10T11:47:12.688Z,728.00
2018-09-10T11:48:12.678Z,676.00
2018-09-10T11:49:12.672Z,672.00
2018-09-10T11:50:12.660Z,708.00
2018-09-10T11:51:12.649Z,824.00
2018-09-10T11:52:12.639Z,740.00
2018-09-10T11:53:12.633Z,588.00
2018-09-10T11:54:12.622Z,612.00
2018-09-10T11:55:12.608Z,664.00
2018-09-10T11:56:12.598Z,616.00
2018-09-10T11:57:12.589Z,704.00
2018-09-10T11:58:12.579Z,948.00
2018-09-10T11:59:12.669Z,752.00
2018-09-10T12:00:12.569Z,636.00
2018-09-10T12:01:12.561Z,608.00
2018-09-10T12:02:12.805Z,584.00
2018-09-10T12:03:12.539Z,660.00
2018-09-10T12:04:12.528Z,884.00
2018-09-10T12:05:12.509Z,828.00
2018-09-10T12:06:12.499Z,988.00
2018-09-10T12:07:12.488Z,728.00
2018-09-10T12:08:12.738Z,696.00
2018-09-10T12:09:12.474Z,640.00
2018-09-10T12:10:12.460Z,672.00
2018-09-10T12:11:12.453Z,732.00
2018-09-10T12:12:12.450Z,744.00
2018-09-10T12:13:12.441Z,828.00
2018-09-10T12:14:12.423Z,888.00
2018-09-10T12:15:12.421Z,856.00
2018-09-10T12:16:12.405Z,844.00
2018-09-10T12:17:12.395Z,768.00
2018-09-10T12:18:12.395Z,652.00
2018-09-10T12:19:12.385Z,1120.00
2018-09-10T12:20:12.365Z,804.00
2018-09-10T12:21:12.355Z,1272.00
2018-09-10T12:22:12.356Z,748.00
2018-09-10T12:23:12.337Z,652.00
2018-09-10T12:24:12.327Z,588.00
2018-09-10T12:25:12.332Z,604.00
2018-09-10T12:26:12.318Z,580.00
2018-09-10T12:27:12.309Z,564.00
2018-09-10T12:28:12.300Z,592.00
2018-09-10T12:29:12.291Z,576.00
2018-09-10T12:30:12.278Z,628.00
2018-09-10T12:31:12.274Z,628.00
2018-09-10T12:32:12.259Z,764.00
2018-09-10T12:33:12.249Z,724.00
2018-09-10T12:34:12.235Z,1048.00
2018-09-10T12:35:12.235Z,664.00
2018-09-10T12:36:12.218Z,568.00
2018-09-10T12:37:12.216Z,616.00
2018-09-10T12:38:12.307Z,704.00
2018-09-10T12:39:12.198Z,780.00
2018-09-10T12:40:12.188Z,1944.00
2018-09-10T12:41:12.180Z,688.00
2018-09-10T12:42:12.169Z,644.00
2018-09-10T12:43:12.160Z,932.00
2018-09-10T12:44:12.152Z,1068.00
2018-09-10T12:45:12.137Z,868.00
2018-09-10T12:46:12.133Z,800.00
2018-09-10T12:47:12.119Z,744.00
2018-09-10T12:48:12.117Z,2652.00
2018-09-10T12:49:12.105Z,804.00
2018-09-10T12:50:12.092Z,860.00
2018-09-10T12:51:12.086Z,2468.00
2018-09-10T12:52:12.078Z,1264.00
2018-09-10T12:53:12.069Z,844.00
2018-09-10T12:54:12.060Z,2484.00
2018-09-10T12:55:12.048Z,2544.00
2018-09-10T12:56:12.042Z,2576.00
2018-09-10T12:57:12.032Z,2612.00
2018-09-10T12:58:12.020Z,940.00
2018-09-10T12:59:12.013Z,940.00
2018-09-10T13:00:12.009Z,1004.00
2018-09-10T13:01:11.994Z,1940.00
2018-09-10T13:02:11.991Z,2488.00
2018-09-10T13:03:11.977Z,1908.00